KGYY/GYY METAR and TAF weather

Enter ICAO airport designator
Station Type Date Time Source
KGYY METAR 2019/06/18 05:15 UTC NOAA

KGYY 180515Z AUTO 04003KT 1/4SM FG OVC002 14/14 A3001 RMK AO2 T01350135


Station Type Date Time Source
KGYY Decoded METAR 2019/06/18 05:15 UTC NOAA

Gary Regional, IN, United States (KGYY) 41-37N 087-25W
Jun 18, 2019 - 01:15 AM EDT / 2019.06.18 0515 UTC
Wind: from the NE (040 degrees) at 3 MPH (3 KT):0
Visibility: 1/4 mile(s):0
Sky conditions: overcast
Weather: fog
Temperature: 56.3 F (13.5 C)
Dew Point: 56.3 F (13.5 C)
Relative Humidity: 100%
Pressure (altimeter): 30.01 in. Hg (1016 hPa)
ob: KGYY 180515Z AUTO 04003KT 1/4SM FG OVC002 14/14 A3001 RMK AO2 T01350135
cycle: 5

Station Type Date Time Source
KGYY TAF 2019/06/18 04:45 UTC NOAA

TAF
AMD KGYY 180341Z 1804/1824 VRB03KT 1/2SM FG OVC002
FM181500 03005KT 5SM BR BKN009
FM181800 06005KT P6SM BKN015
FM182000 08006KT P6SM BKN020

Example: see airport list